createdAt,value
2018-03-31T00:00:24.397Z,16.67
2018-03-31T00:02:51.375Z,17.70
2018-03-31T00:05:18.342Z,16.37
2018-03-31T00:07:45.322Z,17.33
2018-03-31T00:10:12.297Z,20.23
2018-03-31T00:12:39.299Z,16.00
2018-03-31T00:15:07.030Z,17.23
2018-03-31T00:17:34.009Z,16.47
2018-03-31T00:20:00.970Z,16.70
2018-03-31T00:22:27.968Z,17.00
2018-03-31T00:24:54.950Z,16.13
2018-03-31T00:27:22.706Z,22.37
2018-03-31T00:29:49.709Z,16.23
2018-03-31T00:32:16.678Z,17.13
2018-03-31T00:34:43.671Z,16.80
2018-03-31T00:37:10.630Z,16.97
2018-03-31T00:39:37.617Z,14.50
2018-03-31T00:42:04.598Z,16.80
2018-03-31T00:44:31.586Z,14.40
2018-03-31T00:46:58.583Z,15.07
2018-03-31T00:49:25.546Z,16.20
2018-03-31T00:51:52.554Z,18.27
2018-03-31T00:54:20.274Z,15.37
2018-03-31T00:56:47.262Z,16.80
2018-03-31T00:59:14.998Z,14.80
2018-03-31T01:04:15.474Z,14.17
2018-03-31T01:06:43.234Z,17.00
2018-03-31T01:09:10.979Z,14.73
2018-03-31T01:11:37.969Z,15.50
2018-03-31T01:14:04.923Z,15.33
2018-03-31T01:16:31.917Z,13.20
2018-03-31T01:18:58.909Z,15.23
2018-03-31T01:21:25.864Z,14.47
2018-03-31T01:23:52.850Z,14.77
2018-03-31T01:26:19.810Z,14.90
2018-03-31T01:28:46.809Z,15.77
2018-03-31T01:31:13.797Z,14.53
2018-03-31T01:33:40.759Z,13.63
2018-03-31T01:36:08.513Z,15.60
2018-03-31T01:38:35.499Z,14.30
2018-03-31T01:41:02.452Z,13.10
2018-03-31T01:43:29.461Z,12.47
2018-03-31T01:45:57.194Z,14.20
2018-03-31T01:48:24.148Z,16.20
2018-03-31T01:50:51.129Z,15.17
2018-03-31T01:53:18.098Z,14.83
2018-03-31T01:55:45.089Z,13.73
2018-03-31T01:58:12.073Z,13.77
2018-03-31T02:00:39.052Z,14.60
2018-03-31T02:03:06.026Z,15.23
2018-03-31T02:05:33.010Z,16.80
2018-03-31T02:07:59.975Z,15.93
2018-03-31T02:10:26.954Z,14.77
2018-03-31T02:12:54.710Z,13.87
2018-03-31T02:15:21.698Z,14.23
2018-03-31T02:17:48.678Z,13.30
2018-03-31T02:20:15.665Z,12.67
2018-03-31T02:22:42.649Z,12.43
2018-03-31T02:25:09.616Z,16.20
2018-03-31T02:27:36.618Z,14.00
2018-03-31T02:30:04.374Z,13.20
2018-03-31T02:32:32.115Z,18.13
2018-03-31T02:34:59.103Z,12.73
2018-03-31T02:37:26.084Z,16.80
2018-03-31T02:39:53.051Z,11.53
2018-03-31T02:42:20.045Z,12.47
2018-03-31T02:44:47.004Z,16.20
2018-03-31T02:47:14.010Z,15.03
2018-03-31T02:49:41.012Z,15.90
2018-03-31T02:52:08.006Z,17.47
2018-03-31T02:54:34.970Z,15.60
2018-03-31T02:57:01.965Z,14.50
2018-03-31T02:59:28.937Z,17.57
2018-03-31T03:01:55.936Z,13.97
2018-03-31T03:04:22.943Z,15.73
2018-03-31T03:06:50.673Z,16.57
2018-03-31T03:09:17.637Z,14.17
2018-03-31T03:11:44.614Z,17.17
2018-03-31T03:14:11.576Z,14.53
2018-03-31T03:16:38.561Z,15.07
2018-03-31T03:19:05.529Z,15.63
2018-03-31T03:21:33.307Z,15.77
2018-03-31T03:24:00.277Z,16.47
2018-03-31T03:26:27.238Z,16.00
2018-03-31T03:28:54.233Z,13.77
2018-03-31T03:31:21.205Z,18.57
2018-03-31T03:33:48.196Z,15.67
2018-03-31T03:36:15.173Z,19.60
2018-03-31T03:38:42.153Z,18.13
2018-03-31T03:41:09.142Z,17.77
2018-03-31T03:43:36.158Z,17.30
2018-03-31T03:46:03.162Z,16.57
2018-03-31T03:48:30.129Z,20.23
2018-03-31T03:50:57.094Z,15.13
2018-03-31T03:53:24.086Z,17.27
2018-03-31T03:55:51.814Z,15.90
2018-03-31T03:58:18.806Z,17.00
2018-03-31T04:00:46.542Z,19.33
2018-03-31T04:03:13.546Z,15.53
2018-03-31T04:05:40.517Z,18.13
2018-03-31T04:08:07.503Z,20.10
2018-03-31T04:10:34.456Z,16.53
2018-03-31T04:13:01.453Z,17.60
2018-03-31T04:15:28.426Z,17.93
2018-03-31T04:17:56.157Z,16.97
2018-03-31T04:20:23.158Z,18.80
2018-03-31T04:22:50.122Z,19.47
2018-03-31T04:25:17.110Z,18.20
2018-03-31T04:27:44.069Z,15.87
2018-03-31T04:30:11.856Z,17.70
2018-03-31T04:32:38.829Z,16.63
2018-03-31T04:35:05.898Z,17.77
2018-03-31T04:37:32.858Z,16.03
2018-03-31T04:39:59.845Z,15.37
2018-03-31T04:42:26.809Z,16.60
2018-03-31T04:44:53.798Z,17.03
2018-03-31T04:47:20.781Z,16.83
2018-03-31T04:49:47.751Z,18.43
2018-03-31T04:52:14.733Z,18.17
2018-03-31T04:54:41.774Z,16.60
2018-03-31T04:57:08.742Z,18.20
2018-03-31T04:59:36.465Z,15.57
2018-03-31T05:02:03.460Z,19.13
2018-03-31T05:04:30.451Z,15.77
2018-03-31T05:06:57.417Z,15.70
2018-03-31T05:09:24.394Z,17.40
2018-03-31T05:11:51.370Z,17.87
2018-03-31T05:14:18.354Z,16.00
2018-03-31T05:16:45.314Z,17.67
2018-03-31T05:19:12.306Z,18.17
2018-03-31T05:21:39.273Z,18.17
2018-03-31T05:24:06.274Z,16.03
2018-03-31T05:26:33.261Z,18.33
2018-03-31T05:29:00.262Z,17.33
2018-03-31T05:31:28.010Z,18.53
2018-03-31T05:33:54.983Z,16.20
2018-03-31T05:36:21.969Z,17.07
2018-03-31T05:38:48.934Z,18.40
2018-03-31T05:41:15.917Z,15.40
2018-03-31T05:43:42.916Z,16.10
2018-03-31T05:46:09.901Z,16.33
2018-03-31T05:48:36.898Z,20.23
2018-03-31T05:51:03.859Z,18.10
2018-03-31T05:53:30.894Z,17.53
2018-03-31T05:55:57.837Z,16.33
2018-03-31T05:58:24.806Z,16.50
2018-03-31T06:00:51.777Z,20.20
2018-03-31T06:03:18.790Z,15.90
2018-03-31T06:05:45.774Z,16.70
2018-03-31T06:08:12.745Z,16.97
2018-03-31T06:10:39.725Z,16.10
2018-03-31T06:13:06.718Z,17.53
2018-03-31T06:15:33.714Z,17.13
2018-03-31T06:18:00.673Z,18.03
2018-03-31T06:20:27.673Z,17.87
2018-03-31T06:22:54.645Z,17.00
2018-03-31T06:25:21.622Z,16.87
2018-03-31T06:27:48.625Z,15.63
2018-03-31T06:30:15.619Z,15.70
2018-03-31T06:32:42.630Z,18.13
2018-03-31T06:35:09.627Z,15.20
2018-03-31T06:37:36.602Z,15.97
2018-03-31T06:40:03.570Z,17.00
2018-03-31T06:42:30.550Z,16.90
2018-03-31T06:44:58.282Z,15.20
2018-03-31T06:47:25.269Z,16.07
2018-03-31T06:49:52.249Z,15.43
2018-03-31T06:52:19.241Z,16.33
2018-03-31T06:54:46.986Z,18.40
2018-03-31T06:57:14.749Z,14.27
2018-03-31T06:59:41.714Z,17.40
2018-03-31T07:02:09.443Z,16.43
2018-03-31T07:04:36.451Z,16.20
2018-03-31T07:07:03.414Z,14.50
2018-03-31T07:09:30.374Z,16.20
2018-03-31T07:11:57.367Z,14.43
2018-03-31T07:14:25.114Z,16.93
2018-03-31T07:16:52.846Z,15.63
2018-03-31T07:19:19.837Z,16.53
2018-03-31T07:21:46.843Z,17.67
2018-03-31T07:24:13.810Z,16.27
2018-03-31T07:26:40.797Z,15.13
2018-03-31T07:29:07.769Z,14.90
2018-03-31T07:31:34.770Z,15.57
2018-03-31T07:34:01.730Z,16.63
2018-03-31T07:36:28.726Z,13.27
2018-03-31T07:38:55.699Z,14.57
2018-03-31T07:41:23.423Z,17.73
2018-03-31T07:43:50.417Z,17.17
2018-03-31T07:46:18.182Z,15.93
2018-03-31T07:48:45.974Z,16.13
2018-03-31T07:51:12.964Z,15.00
2018-03-31T07:53:39.941Z,15.23
2018-03-31T07:56:07.679Z,14.43
2018-03-31T07:58:35.449Z,15.83
2018-03-31T08:01:02.470Z,18.00
2018-03-31T08:03:29.439Z,16.57
2018-03-31T08:05:56.413Z,15.30
2018-03-31T08:08:23.414Z,17.83
2018-03-31T08:10:50.398Z,17.97
2018-03-31T08:13:17.370Z,18.17
2018-03-31T08:15:44.367Z,18.57
2018-03-31T08:18:11.346Z,20.83
2018-03-31T08:20:39.101Z,21.97
2018-03-31T08:23:07.053Z,18.90
2018-03-31T08:25:34.785Z,16.80
2018-03-31T08:28:01.784Z,18.20
2018-03-31T08:30:28.846Z,18.20
2018-03-31T08:32:55.773Z,15.20
2018-03-31T08:35:22.747Z,15.37
2018-03-31T08:37:49.742Z,15.40
2018-03-31T08:40:17.568Z,13.93
2018-03-31T08:42:44.554Z,12.53
2018-03-31T08:45:12.294Z,16.23
2018-03-31T08:47:39.323Z,15.60
2018-03-31T08:50:06.290Z,14.80
2018-03-31T08:52:33.286Z,15.50
2018-03-31T08:55:00.241Z,14.87
2018-03-31T08:57:27.254Z,14.73
2018-03-31T09:02:28.460Z,15.67
2018-03-31T09:04:55.447Z,15.00
2018-03-31T09:07:22.438Z,15.57
2018-03-31T09:09:49.443Z,16.57
2018-03-31T09:12:17.209Z,15.87
2018-03-31T09:14:44.211Z,15.67
2018-03-31T09:17:11.194Z,15.53
2018-03-31T09:19:38.182Z,16.00
2018-03-31T09:22:05.144Z,17.97
2018-03-31T09:24:32.111Z,18.77
2018-03-31T09:26:59.112Z,19.63
2018-03-31T09:29:26.082Z,18.00
2018-03-31T09:31:53.066Z,19.90
2018-03-31T09:34:20.039Z,20.23
2018-03-31T09:36:47.798Z,18.73
2018-03-31T09:39:15.543Z,21.10
2018-03-31T09:41:42.538Z,22.27
2018-03-31T09:44:09.543Z,21.77
2018-03-31T09:46:37.441Z,23.27
2018-03-31T09:49:04.370Z,21.93
2018-03-31T09:51:32.110Z,22.87
2018-03-31T09:53:59.068Z,21.77
2018-03-31T09:56:26.843Z,22.83
2018-03-31T09:58:53.800Z,22.07
2018-03-31T10:01:20.765Z,23.57
2018-03-31T10:03:47.764Z,21.57
2018-03-31T10:06:14.713Z,17.83
2018-03-31T10:08:42.455Z,24.13
2018-03-31T10:11:09.434Z,21.07
2018-03-31T10:13:36.417Z,23.43
2018-03-31T10:16:03.405Z,22.10
2018-03-31T10:18:30.401Z,22.87
2018-03-31T10:20:57.398Z,23.60
2018-03-31T10:23:24.382Z,23.53
2018-03-31T10:25:51.362Z,23.60
2018-03-31T10:28:18.357Z,23.53
2018-03-31T10:30:45.339Z,25.57
2018-03-31T10:33:12.346Z,27.13
2018-03-31T10:35:40.816Z,28.77
2018-03-31T10:38:07.814Z,27.00
2018-03-31T10:40:34.797Z,29.50
2018-03-31T10:43:01.791Z,28.57
2018-03-31T10:45:28.796Z,27.40
2018-03-31T10:47:56.542Z,27.13
2018-03-31T10:50:23.507Z,27.33
2018-03-31T10:52:51.271Z,28.47
2018-03-31T10:55:18.237Z,24.60
2018-03-31T10:57:45.236Z,26.07
2018-03-31T11:00:12.199Z,26.17
2018-03-31T11:02:39.173Z,26.87
2018-03-31T11:05:06.164Z,26.80
2018-03-31T11:07:33.162Z,24.90
2018-03-31T11:10:00.154Z,26.13
2018-03-31T11:12:27.129Z,25.87
2018-03-31T11:14:54.881Z,24.00
2018-03-31T11:17:21.847Z,27.47
2018-03-31T11:19:49.620Z,27.57
2018-03-31T11:22:16.589Z,27.53
2018-03-31T11:24:43.584Z,26.77
2018-03-31T11:27:10.553Z,22.57
2018-03-31T11:29:37.518Z,27.87
2018-03-31T11:32:04.515Z,25.57
2018-03-31T11:34:31.504Z,26.13
2018-03-31T11:36:58.494Z,29.67
2018-03-31T11:39:25.481Z,26.90
2018-03-31T11:41:52.456Z,25.90
2018-03-31T11:44:19.431Z,24.97
2018-03-31T11:46:46.421Z,26.63
2018-03-31T11:49:14.178Z,22.60
2018-03-31T11:51:41.160Z,26.70
2018-03-31T11:54:08.126Z,26.23
2018-03-31T11:56:35.891Z,29.07
2018-03-31T11:59:02.878Z,27.67
2018-03-31T12:01:30.650Z,28.73
2018-03-31T12:03:57.650Z,27.03
2018-03-31T12:06:24.603Z,28.17
2018-03-31T12:08:51.597Z,25.70
2018-03-31T12:11:18.562Z,23.13
2018-03-31T12:13:45.547Z,23.47
2018-03-31T12:16:12.542Z,26.67
2018-03-31T12:18:39.567Z,29.43
2018-03-31T12:21:07.347Z,28.03
2018-03-31T12:23:34.321Z,28.97
2018-03-31T12:26:01.302Z,22.57
2018-03-31T12:28:28.271Z,24.33
2018-03-31T12:30:56.022Z,26.03
2018-03-31T12:33:23.010Z,25.03
2018-03-31T12:35:50.000Z,26.30
2018-03-31T12:38:16.975Z,24.00
2018-03-31T12:40:43.949Z,24.17
2018-03-31T12:43:10.926Z,23.77
2018-03-31T12:45:37.920Z,26.40
2018-03-31T12:48:04.923Z,26.70
2018-03-31T12:50:31.897Z,25.30
2018-03-31T12:52:59.632Z,25.90
2018-03-31T12:55:26.629Z,24.10
2018-03-31T12:57:53.590Z,25.27
2018-03-31T13:00:20.591Z,23.60
2018-03-31T13:02:47.561Z,27.07
2018-03-31T13:05:14.528Z,25.90
2018-03-31T13:07:41.559Z,29.33
2018-03-31T13:10:08.527Z,27.03
2018-03-31T13:12:35.498Z,25.77
2018-03-31T13:15:02.498Z,26.47
2018-03-31T13:17:29.462Z,29.27
2018-03-31T13:19:56.435Z,27.53
2018-03-31T13:22:23.414Z,29.77
2018-03-31T13:24:51.153Z,25.37
2018-03-31T13:27:18.144Z,26.47
2018-03-31T13:29:45.117Z,29.83
2018-03-31T13:32:12.093Z,29.83
2018-03-31T13:34:39.081Z,26.13
2018-03-31T13:37:06.801Z,23.73
2018-03-31T13:39:33.785Z,30.17
2018-03-31T13:42:00.785Z,27.80
2018-03-31T13:44:27.737Z,26.10
2018-03-31T13:46:54.739Z,23.80
2018-03-31T13:49:21.699Z,26.97
2018-03-31T13:51:48.674Z,24.80
2018-03-31T13:54:15.638Z,25.83
2018-03-31T13:56:43.366Z,21.40
2018-03-31T13:59:10.353Z,24.37
2018-03-31T14:01:37.349Z,23.93
2018-03-31T14:04:04.318Z,22.50
2018-03-31T14:06:31.321Z,22.53
2018-03-31T14:08:58.309Z,21.67
2018-03-31T14:11:25.286Z,24.27
2018-03-31T14:13:53.038Z,24.03
2018-03-31T14:16:19.999Z,25.90
2018-03-31T14:18:47.759Z,40.90
2018-03-31T14:21:14.730Z,28.67
2018-03-31T14:23:41.704Z,31.57
2018-03-31T14:26:08.712Z,27.57
2018-03-31T14:28:35.687Z,28.80
2018-03-31T14:31:02.661Z,26.57
2018-03-31T14:33:29.650Z,32.53
2018-03-31T14:35:56.653Z,32.67
2018-03-31T14:38:23.603Z,35.67
2018-03-31T14:40:50.611Z,36.70
2018-03-31T14:43:17.582Z,30.10
2018-03-31T14:45:44.561Z,35.63
2018-03-31T14:48:11.534Z,36.63
2018-03-31T14:50:38.525Z,30.73
2018-03-31T14:53:05.502Z,31.07
2018-03-31T14:55:33.265Z,27.30
2018-03-31T14:58:00.250Z,28.23
2018-03-31T15:00:27.234Z,33.33
2018-03-31T15:02:56.313Z,37.43
2018-03-31T15:05:23.274Z,30.70
2018-03-31T15:07:50.240Z,31.23
2018-03-31T15:10:18.087Z,30.00
2018-03-31T15:12:45.038Z,28.87
2018-03-31T15:15:12.874Z,29.37
2018-03-31T15:17:39.870Z,35.47
2018-03-31T15:20:06.866Z,37.80
2018-03-31T15:22:33.947Z,60.63
2018-03-31T15:25:00.920Z,38.57
2018-03-31T15:27:27.916Z,33.83
2018-03-31T15:29:54.883Z,32.93
2018-03-31T15:32:22.687Z,30.43
2018-03-31T15:34:49.679Z,35.40
2018-03-31T15:37:16.632Z,32.27
2018-03-31T15:42:17.125Z,38.43
2018-03-31T15:44:44.085Z,41.47
2018-03-31T15:47:11.069Z,38.77
2018-03-31T15:49:38.831Z,41.63
2018-03-31T15:52:05.820Z,41.33
2018-03-31T15:54:32.809Z,36.47
2018-03-31T15:56:59.810Z,40.80
2018-03-31T15:59:26.802Z,42.93
2018-03-31T16:01:53.766Z,35.53
2018-03-31T16:04:21.522Z,34.73
2018-03-31T16:06:49.270Z,35.40
2018-03-31T16:09:16.239Z,32.23
2018-03-31T16:11:43.990Z,36.37
2018-03-31T16:14:10.950Z,33.77
2018-03-31T16:16:38.777Z,37.73
2018-03-31T16:19:05.755Z,33.10
2018-03-31T16:21:33.482Z,38.87
2018-03-31T16:24:00.465Z,36.40
2018-03-31T16:26:27.429Z,38.57
2018-03-31T16:28:54.422Z,34.63
2018-03-31T16:31:22.158Z,36.27
2018-03-31T16:33:49.162Z,33.73
2018-03-31T16:36:16.174Z,39.33
2018-03-31T16:38:43.171Z,38.33
2018-03-31T16:41:10.937Z,38.07
2018-03-31T16:43:37.922Z,32.83
2018-03-31T16:46:04.949Z,38.63
2018-03-31T16:48:31.934Z,35.87
2018-03-31T16:50:58.926Z,65.20
2018-03-31T16:53:25.893Z,53.47
2018-03-31T16:55:52.896Z,58.53
2018-03-31T16:58:20.655Z,38.97
2018-03-31T17:00:47.646Z,38.80
2018-03-31T17:03:14.622Z,44.87
2018-03-31T17:05:41.618Z,45.40
2018-03-31T17:08:08.614Z,49.90
2018-03-31T17:10:35.586Z,55.17
2018-03-31T17:13:03.354Z,53.40
2018-03-31T17:15:31.107Z,53.40
2018-03-31T17:17:58.074Z,46.97
2018-03-31T17:20:25.839Z,46.00
2018-03-31T17:22:53.624Z,45.83
2018-03-31T17:25:20.610Z,41.87
2018-03-31T17:27:47.579Z,41.13
2018-03-31T17:30:14.570Z,42.00
2018-03-31T17:32:41.549Z,49.53
2018-03-31T17:35:08.551Z,42.00
2018-03-31T17:37:35.509Z,42.70
2018-03-31T17:40:02.496Z,35.63
2018-03-31T17:42:29.453Z,40.23
2018-03-31T17:44:57.210Z,41.70
2018-03-31T17:47:24.193Z,43.47
2018-03-31T17:49:51.151Z,49.00
2018-03-31T17:52:18.150Z,53.43
2018-03-31T17:54:45.122Z,60.67
2018-03-31T17:57:12.089Z,55.37
2018-03-31T17:59:40.042Z,55.97
2018-03-31T18:02:07.867Z,49.83
2018-03-31T18:04:34.874Z,42.40
2018-03-31T18:07:01.861Z,38.37
2018-03-31T18:09:28.826Z,39.37
2018-03-31T18:11:56.581Z,41.87
2018-03-31T18:14:24.354Z,41.40
2018-03-31T18:16:51.382Z,39.57
2018-03-31T18:19:18.378Z,42.10
2018-03-31T18:21:45.396Z,49.77
2018-03-31T18:24:13.110Z,40.80
2018-03-31T18:26:40.108Z,48.57
2018-03-31T18:29:07.070Z,46.67
2018-03-31T18:31:34.074Z,48.67
2018-03-31T18:34:01.042Z,41.93
2018-03-31T18:36:28.007Z,41.97
2018-03-31T18:38:55.028Z,43.40
2018-03-31T18:41:21.959Z,49.90
2018-03-31T18:43:48.961Z,61.80
2018-03-31T18:46:15.930Z,57.80
2018-03-31T18:48:42.918Z,56.17
2018-03-31T18:51:09.911Z,59.33
2018-03-31T18:53:36.902Z,55.90
2018-03-31T18:56:03.959Z,50.33
2018-03-31T18:58:30.983Z,54.00
2018-03-31T19:00:57.946Z,56.30
2018-03-31T19:03:25.707Z,47.87
2018-03-31T19:05:53.461Z,41.90
2018-03-31T19:08:21.193Z,37.07
2018-03-31T19:10:48.179Z,43.23
2018-03-31T19:13:16.427Z,45.37
2018-03-31T19:15:43.394Z,38.97
2018-03-31T19:18:11.161Z,56.20
2018-03-31T19:20:38.933Z,39.77
2018-03-31T19:23:06.657Z,47.20
2018-03-31T19:25:35.598Z,36.27
2018-03-31T19:28:02.563Z,38.97
2018-03-31T19:30:35.348Z,51.33
2018-03-31T19:33:02.342Z,50.67
2018-03-31T19:35:29.328Z,49.30
2018-03-31T19:37:56.289Z,47.27
2018-03-31T19:40:23.269Z,41.77
2018-03-31T19:42:50.233Z,43.50
2018-03-31T19:45:17.249Z,47.70
2018-03-31T19:47:44.202Z,41.20
2018-03-31T19:50:11.169Z,47.60
2018-03-31T19:52:38.162Z,43.00
2018-03-31T19:55:05.117Z,42.07
2018-03-31T19:57:32.103Z,45.43
2018-03-31T19:59:59.850Z,44.27
2018-03-31T20:02:26.850Z,43.73
2018-03-31T20:04:53.809Z,41.33
2018-03-31T20:07:20.802Z,46.67
2018-03-31T20:09:47.765Z,49.77
2018-03-31T20:12:14.733Z,36.97
2018-03-31T20:14:41.709Z,35.83
2018-03-31T20:17:08.669Z,48.93
2018-03-31T20:19:35.675Z,53.73
2018-03-31T20:22:02.640Z,36.40
2018-03-31T20:24:30.393Z,39.30
2018-03-31T20:26:57.398Z,49.60
2018-03-31T20:29:25.114Z,37.73
2018-03-31T20:31:52.115Z,31.40
2018-03-31T20:34:19.087Z,30.67
2018-03-31T20:36:46.070Z,29.57
2018-03-31T20:39:13.045Z,30.60
2018-03-31T20:41:40.044Z,32.40
2018-03-31T20:44:07.002Z,28.13
2018-03-31T20:46:33.961Z,28.77
2018-03-31T20:49:00.962Z,32.40
2018-03-31T20:51:27.951Z,33.80
2018-03-31T20:53:54.923Z,32.37
2018-03-31T20:56:21.902Z,28.70
2018-03-31T20:58:48.878Z,33.70
2018-03-31T21:01:15.865Z,30.77
2018-03-31T21:03:42.857Z,29.83
2018-03-31T21:06:09.829Z,30.30
2018-03-31T21:08:36.820Z,32.30
2018-03-31T21:11:03.801Z,31.03
2018-03-31T21:13:30.784Z,39.17
2018-03-31T21:15:58.534Z,41.20
2018-03-31T21:18:25.505Z,32.00
2018-03-31T21:20:52.494Z,41.27
2018-03-31T21:23:20.230Z,34.77
2018-03-31T21:25:47.232Z,41.93
2018-03-31T21:28:14.214Z,33.40
2018-03-31T21:30:41.182Z,35.87
2018-03-31T21:33:08.201Z,32.33
2018-03-31T21:35:35.231Z,34.30
2018-03-31T21:38:02.138Z,29.33
2018-03-31T21:40:29.122Z,30.40
2018-03-31T21:42:56.968Z,33.43
2018-03-31T21:45:23.874Z,27.67
2018-03-31T21:47:50.834Z,30.87
2018-03-31T21:50:17.827Z,28.07
2018-03-31T21:52:44.820Z,25.80
2018-03-31T21:55:11.802Z,32.50
2018-03-31T21:57:38.805Z,28.27
2018-03-31T22:00:05.798Z,29.03
2018-03-31T22:02:33.595Z,31.10
2018-03-31T22:05:00.586Z,28.97
2018-03-31T22:07:27.570Z,25.10
2018-03-31T22:09:54.558Z,28.57
2018-03-31T22:12:21.517Z,28.57
2018-03-31T22:14:54.162Z,28.33
2018-03-31T22:17:21.126Z,31.60
2018-03-31T22:19:48.126Z,28.63
2018-03-31T22:22:15.088Z,32.70
2018-03-31T22:24:42.081Z,26.37
2018-03-31T22:27:09.106Z,27.23
2018-03-31T22:29:36.086Z,27.40
2018-03-31T22:32:03.095Z,31.80
2018-03-31T22:34:30.083Z,29.37
2018-03-31T22:36:57.065Z,31.30
2018-03-31T22:39:24.046Z,33.20
2018-03-31T22:41:51.025Z,34.23
2018-03-31T22:44:18.773Z,36.17
2018-03-31T22:46:45.779Z,37.30
2018-03-31T22:49:12.746Z,33.40
2018-03-31T22:51:39.706Z,36.53
2018-03-31T22:54:06.698Z,35.43
2018-03-31T22:56:33.661Z,39.70
2018-03-31T22:59:00.641Z,42.77
2018-03-31T23:01:27.613Z,37.70
2018-03-31T23:03:55.378Z,47.47
2018-03-31T23:06:23.138Z,43.10
2018-03-31T23:08:50.090Z,42.60
2018-03-31T23:11:17.871Z,37.87
2018-03-31T23:13:44.841Z,38.43
2018-03-31T23:16:11.821Z,34.67
2018-03-31T23:18:38.793Z,39.40
2018-03-31T23:21:05.781Z,41.60
2018-03-31T23:23:32.769Z,40.83
2018-03-31T23:25:59.775Z,35.97
2018-03-31T23:28:26.742Z,34.23
2018-03-31T23:30:53.721Z,35.10
2018-03-31T23:33:21.474Z,38.77
2018-03-31T23:35:48.430Z,34.13
2018-03-31T23:38:16.181Z,34.87
2018-03-31T23:40:43.146Z,35.57
2018-03-31T23:43:10.139Z,33.73
2018-03-31T23:45:37.102Z,31.90
2018-03-31T23:48:04.076Z,32.37
2018-03-31T23:50:31.918Z,30.37
2018-03-31T23:52:58.884Z,31.47
2018-03-31T23:55:25.877Z,30.60
2018-03-31T23:57:52.867Z,28.60
